createdAt,value
2019-02-17T00:02:07.600Z,16.00
2019-02-17T00:04:35.264Z,15.45
2019-02-17T00:07:03.039Z,15.88
2019-02-17T00:09:30.030Z,12.78
2019-02-17T00:11:57.118Z,15.38
2019-02-17T00:14:24.327Z,14.47
2019-02-17T00:16:52.468Z,14.75
2019-02-17T00:19:19.518Z,16.35
2019-02-17T00:21:46.597Z,16.15
2019-02-17T00:24:13.501Z,15.43
2019-02-17T00:26:40.618Z,15.23
2019-02-17T00:29:07.649Z,15.75
2019-02-17T00:31:35.107Z,15.93
2019-02-17T00:34:03.089Z,14.87
2019-02-17T00:36:31.166Z,14.73
2019-02-17T00:38:58.497Z,14.93
2019-02-17T00:41:25.716Z,16.20
2019-02-17T00:43:53.047Z,14.75
2019-02-17T00:46:20.149Z,16.07
2019-02-17T00:48:47.585Z,14.07
2019-02-17T00:51:14.742Z,14.07
2019-02-17T00:53:42.033Z,14.10
2019-02-17T00:56:09.279Z,13.72
2019-02-17T00:58:36.676Z,13.90
2019-02-17T01:01:03.762Z,14.83
2019-02-17T01:03:30.814Z,15.35
2019-02-17T01:05:57.761Z,15.40
2019-02-17T01:08:24.871Z,15.53
2019-02-17T01:10:51.753Z,14.00
2019-02-17T01:13:18.678Z,13.35
2019-02-17T01:15:45.675Z,13.88
2019-02-17T01:18:12.713Z,14.03
2019-02-17T01:20:39.985Z,16.20
2019-02-17T01:23:07.519Z,14.95
2019-02-17T01:25:34.658Z,13.38
2019-02-17T01:28:01.838Z,15.20
2019-02-17T01:30:28.946Z,14.13
2019-02-17T01:32:55.891Z,14.68
2019-02-17T01:35:22.861Z,15.00
2019-02-17T01:37:49.793Z,15.00
2019-02-17T01:40:16.813Z,14.20
2019-02-17T01:42:43.868Z,15.60
2019-02-17T01:45:10.818Z,14.60
2019-02-17T01:47:37.837Z,14.45
2019-02-17T01:50:05.136Z,13.28
2019-02-17T01:52:32.178Z,12.20
2019-02-17T01:54:59.238Z,12.55
2019-02-17T01:57:26.392Z,13.80
2019-02-17T01:59:53.446Z,13.70
2019-02-17T02:02:20.426Z,13.10
2019-02-17T02:04:47.428Z,12.70
2019-02-17T02:07:14.352Z,14.53
2019-02-17T02:09:41.381Z,12.65
2019-02-17T02:12:08.289Z,12.98
2019-02-17T02:14:35.348Z,14.47
2019-02-17T02:17:02.359Z,13.35
2019-02-17T02:19:29.344Z,12.63
2019-02-17T02:21:56.316Z,12.07
2019-02-17T02:24:23.294Z,12.30
2019-02-17T02:26:50.206Z,13.45
2019-02-17T02:29:17.306Z,13.48
2019-02-17T02:31:44.248Z,13.58
2019-02-17T02:34:11.176Z,12.63
2019-02-17T02:36:38.056Z,13.35
2019-02-17T02:39:05.850Z,12.93
2019-02-17T02:41:35.019Z,13.28
2019-02-17T02:44:01.707Z,12.63
2019-02-17T02:46:28.729Z,13.58
2019-02-17T02:48:55.612Z,13.20
2019-02-17T02:51:22.697Z,13.22
2019-02-17T02:53:49.672Z,13.70
2019-02-17T02:56:16.723Z,13.05
2019-02-17T02:58:43.760Z,12.95
2019-02-17T03:01:11.704Z,12.55
2019-02-17T03:03:38.612Z,13.08
2019-02-17T03:06:07.573Z,12.60
2019-02-17T03:08:34.619Z,11.95
2019-02-17T03:11:01.653Z,13.75
2019-02-17T03:13:28.690Z,13.93
2019-02-17T03:15:55.733Z,11.80
2019-02-17T03:18:22.737Z,14.13
2019-02-17T03:20:49.797Z,12.73
2019-02-17T03:23:16.978Z,13.05
2019-02-17T03:25:45.340Z,13.98
2019-02-17T03:28:12.539Z,13.20
2019-02-17T03:30:39.528Z,13.13
2019-02-17T03:33:06.556Z,12.23
2019-02-17T03:35:33.510Z,13.03
2019-02-17T03:38:00.561Z,11.93
2019-02-17T03:40:27.581Z,12.65
2019-02-17T03:42:54.507Z,12.60
2019-02-17T03:45:21.573Z,12.47
2019-02-17T03:47:48.528Z,13.38
2019-02-17T03:50:15.526Z,11.68
2019-02-17T03:52:42.713Z,12.90
2019-02-17T03:55:09.739Z,13.30
2019-02-17T03:57:36.768Z,12.00
2019-02-17T04:00:16.034Z,12.45
2019-02-17T04:02:33.074Z,12.53
2019-02-17T04:05:00.093Z,12.13
2019-02-17T04:07:27.141Z,13.68
2019-02-17T04:09:54.168Z,13.05
2019-02-17T04:12:21.574Z,12.40
2019-02-17T04:14:48.594Z,12.25
2019-02-17T04:17:15.510Z,13.20
2019-02-17T04:19:42.571Z,13.32
2019-02-17T04:22:09.631Z,12.95
2019-02-17T04:24:36.624Z,12.75
2019-02-17T04:27:03.670Z,12.23
2019-02-17T04:29:30.723Z,13.00
2019-02-17T04:31:57.643Z,12.45
2019-02-17T04:34:24.548Z,13.62
2019-02-17T04:36:51.494Z,13.55
2019-02-17T04:39:18.502Z,11.97
2019-02-17T04:41:45.536Z,12.82
2019-02-17T04:44:12.665Z,12.98
2019-02-17T04:46:39.684Z,13.13
2019-02-17T04:49:06.607Z,13.20
2019-02-17T04:51:33.529Z,12.50
2019-02-17T04:54:00.589Z,12.85
2019-02-17T04:56:27.633Z,12.43
2019-02-17T04:58:54.730Z,13.15
2019-02-17T05:01:21.695Z,13.30
2019-02-17T05:03:48.741Z,12.18
2019-02-17T05:06:15.702Z,13.05
2019-02-17T05:08:42.732Z,13.72
2019-02-17T05:11:09.774Z,13.65
2019-02-17T05:13:36.752Z,12.58
2019-02-17T05:16:03.642Z,12.47
2019-02-17T05:18:30.564Z,13.45
2019-02-17T05:20:57.675Z,13.32
2019-02-17T05:23:24.659Z,14.63
2019-02-17T05:25:51.799Z,13.50
2019-02-17T05:28:18.899Z,14.98
2019-02-17T05:30:52.803Z,14.15
2019-02-17T05:33:14.612Z,14.70
2019-02-17T05:35:44.467Z,15.13
2019-02-17T05:38:11.371Z,15.05
2019-02-17T05:40:38.315Z,13.65
2019-02-17T05:43:05.408Z,13.88
2019-02-17T05:45:32.462Z,13.75
2019-02-17T05:47:59.533Z,14.03
2019-02-17T05:50:26.585Z,13.48
2019-02-17T05:52:53.610Z,14.05
2019-02-17T05:55:20.786Z,14.78
2019-02-17T05:57:47.660Z,15.28
2019-02-17T06:00:16.176Z,15.20
2019-02-17T06:02:43.133Z,13.72
2019-02-17T06:05:10.157Z,14.83
2019-02-17T06:07:37.212Z,15.10
2019-02-17T06:10:05.604Z,13.70
2019-02-17T06:12:33.666Z,14.65
2019-02-17T06:15:00.834Z,14.95
2019-02-17T06:17:28.107Z,15.38
2019-02-17T06:19:55.037Z,15.93
2019-02-17T06:22:22.749Z,15.75
2019-02-17T06:24:49.723Z,15.93
2019-02-17T06:27:16.718Z,15.72
2019-02-17T06:29:44.149Z,15.23
2019-02-17T06:32:11.133Z,15.72
2019-02-17T06:34:38.148Z,14.80
2019-02-17T06:37:05.180Z,14.87
2019-02-17T06:39:32.219Z,15.83
2019-02-17T06:41:59.447Z,15.75
2019-02-17T06:44:26.448Z,14.00
2019-02-17T06:46:54.941Z,16.65
2019-02-17T06:49:22.017Z,15.30
2019-02-17T06:51:49.065Z,14.87
2019-02-17T06:54:15.981Z,15.08
2019-02-17T06:56:44.820Z,16.87
2019-02-17T06:59:11.876Z,15.23
2019-02-17T07:01:38.888Z,17.10
2019-02-17T07:04:05.914Z,17.65
2019-02-17T07:06:34.872Z,17.17
2019-02-17T07:09:01.953Z,15.55
2019-02-17T07:11:28.928Z,16.00
2019-02-17T07:13:55.950Z,16.42
2019-02-17T07:16:23.432Z,15.40
2019-02-17T07:18:50.491Z,17.82
2019-02-17T07:21:17.473Z,16.32
2019-02-17T07:23:44.478Z,16.87
2019-02-17T07:26:11.394Z,17.00
2019-02-17T07:28:38.434Z,17.65
2019-02-17T07:31:05.343Z,17.30
2019-02-17T07:33:32.289Z,17.10
2019-02-17T07:35:59.237Z,16.30
2019-02-17T07:38:26.325Z,17.98
2019-02-17T07:40:53.275Z,16.50
2019-02-17T07:43:20.265Z,18.07
2019-02-17T07:45:47.332Z,19.25
2019-02-17T07:48:14.374Z,18.50
2019-02-17T07:50:41.441Z,18.10
2019-02-17T07:53:08.513Z,19.90
2019-02-17T07:55:35.546Z,18.62
2019-02-17T07:58:02.449Z,19.07
2019-02-17T08:00:29.498Z,19.07
2019-02-17T08:02:56.422Z,17.95
2019-02-17T08:05:23.469Z,19.42
2019-02-17T08:07:50.560Z,19.35
2019-02-17T08:10:17.769Z,19.15
2019-02-17T08:12:44.710Z,18.95
2019-02-17T08:15:11.732Z,18.15
2019-02-17T08:17:38.760Z,17.35
2019-02-17T08:20:06.995Z,18.87
2019-02-17T08:22:33.936Z,21.95
2019-02-17T08:25:00.929Z,20.25
2019-02-17T08:27:27.954Z,20.80
2019-02-17T08:29:55.012Z,20.45
2019-02-17T08:32:22.005Z,20.85
2019-02-17T08:34:49.104Z,21.82
2019-02-17T08:37:16.008Z,22.10
2019-02-17T08:39:42.915Z,21.75
2019-02-17T08:42:10.341Z,21.30
2019-02-17T08:44:37.373Z,23.52
2019-02-17T08:47:04.390Z,23.07
2019-02-17T08:49:31.409Z,23.30
2019-02-17T08:51:58.289Z,22.75
2019-02-17T08:54:25.225Z,24.85
2019-02-17T08:56:52.155Z,23.77
2019-02-17T08:59:19.078Z,23.40
2019-02-17T09:01:46.203Z,24.37
2019-02-17T09:04:13.217Z,24.25
2019-02-17T09:06:40.180Z,24.92
2019-02-17T09:09:07.183Z,24.20
2019-02-17T09:11:34.144Z,26.07
2019-02-17T09:14:01.191Z,25.05
2019-02-17T09:16:28.203Z,24.95
2019-02-17T09:18:55.189Z,25.30
2019-02-17T09:21:22.223Z,26.20
2019-02-17T09:23:49.254Z,25.50
2019-02-17T09:26:16.136Z,26.80
2019-02-17T09:28:43.057Z,25.32
2019-02-17T09:31:10.114Z,26.10
2019-02-17T09:33:37.167Z,27.55
2019-02-17T09:36:04.200Z,25.88
2019-02-17T09:38:31.116Z,26.10
2019-02-17T09:40:58.132Z,25.45
2019-02-17T09:43:25.161Z,25.43
2019-02-17T09:45:52.149Z,25.43
2019-02-17T09:48:19.160Z,23.25
2019-02-17T09:50:46.080Z,24.37
2019-02-17T09:53:13.055Z,23.75
2019-02-17T09:55:40.055Z,24.12
2019-02-17T09:58:07.103Z,24.20
2019-02-17T10:00:34.073Z,24.82
2019-02-17T10:03:01.124Z,24.05
2019-02-17T10:05:28.059Z,25.05
2019-02-17T10:07:55.068Z,23.85
2019-02-17T10:10:22.153Z,25.10
2019-02-17T10:12:49.280Z,24.52
2019-02-17T10:15:16.419Z,25.35
2019-02-17T10:17:43.572Z,24.98
2019-02-17T10:20:11.472Z,26.60
2019-02-17T10:22:38.494Z,28.25
2019-02-17T10:25:05.812Z,26.30
2019-02-17T10:27:32.716Z,26.17
2019-02-17T10:29:59.743Z,24.70
2019-02-17T10:32:35.964Z,24.25
2019-02-17T10:34:56.201Z,26.00
2019-02-17T10:37:23.730Z,24.70
2019-02-17T10:39:50.895Z,24.80
2019-02-17T10:42:17.926Z,24.77
2019-02-17T10:44:44.904Z,25.70
2019-02-17T10:47:11.928Z,24.95
2019-02-17T10:49:39.097Z,25.05
2019-02-17T10:52:06.098Z,25.15
2019-02-17T10:54:33.149Z,25.68
2019-02-17T10:57:00.073Z,25.20
2019-02-17T10:59:27.082Z,22.60
2019-02-17T11:01:54.351Z,21.90
2019-02-17T11:04:21.627Z,24.47
2019-02-17T11:06:48.858Z,22.02
2019-02-17T11:09:17.839Z,23.75
2019-02-17T11:11:44.873Z,24.05
2019-02-17T11:14:11.905Z,23.22
2019-02-17T11:16:38.893Z,22.82
2019-02-17T11:19:05.808Z,24.18
2019-02-17T11:21:32.876Z,24.80
2019-02-17T11:24:00.058Z,24.10
2019-02-17T11:26:27.268Z,26.45
2019-02-17T11:28:54.503Z,21.77
2019-02-17T11:31:22.509Z,22.80
2019-02-17T11:33:49.574Z,23.90
2019-02-17T11:36:16.609Z,24.60
2019-02-17T11:38:43.646Z,24.25
2019-02-17T11:41:12.583Z,24.40
2019-02-17T11:43:39.469Z,24.90
2019-02-17T11:46:06.391Z,23.50
2019-02-17T11:48:33.358Z,25.00
2019-02-17T11:51:00.437Z,25.23
2019-02-17T11:53:27.674Z,24.57
2019-02-17T11:55:54.584Z,23.38
2019-02-17T11:58:21.510Z,24.33
2019-02-17T12:00:48.501Z,25.40
2019-02-17T12:03:15.519Z,24.43
2019-02-17T12:05:42.560Z,26.65
2019-02-17T12:08:09.617Z,24.50
2019-02-17T12:10:36.663Z,24.10
2019-02-17T12:13:03.552Z,24.30
2019-02-17T12:15:30.648Z,25.30
2019-02-17T12:17:59.313Z,26.60
2019-02-17T12:20:40.624Z,24.85
2019-02-17T12:23:26.257Z,26.57
2019-02-17T12:25:55.114Z,25.77
2019-02-17T12:28:27.013Z,25.48
2019-02-17T12:30:54.031Z,26.00
2019-02-17T12:33:21.927Z,27.02
2019-02-17T12:35:49.341Z,25.30
2019-02-17T12:38:16.427Z,26.60
2019-02-17T12:40:51.971Z,27.73
2019-02-17T12:43:18.911Z,24.85
2019-02-17T12:45:45.954Z,27.15
2019-02-17T12:48:12.953Z,26.95
2019-02-17T12:50:39.974Z,27.20
2019-02-17T12:53:06.894Z,28.40
2019-02-17T12:55:33.985Z,27.22
2019-02-17T12:58:00.926Z,27.50
2019-02-17T13:00:33.375Z,26.40
2019-02-17T13:03:00.369Z,26.63
2019-02-17T13:05:27.431Z,24.90
2019-02-17T13:07:54.755Z,26.00
2019-02-17T13:10:21.906Z,24.85
2019-02-17T13:12:48.941Z,24.92
2019-02-17T13:15:17.361Z,24.52
2019-02-17T13:17:44.384Z,24.27
2019-02-17T13:20:11.771Z,25.20
2019-02-17T13:22:38.885Z,24.77
2019-02-17T13:25:07.494Z,24.27
2019-02-17T13:27:34.675Z,24.98
2019-02-17T13:30:01.959Z,25.37
2019-02-17T13:32:28.995Z,24.90
2019-02-17T13:34:55.979Z,27.03
2019-02-17T13:37:23.036Z,25.67
2019-02-17T13:39:50.052Z,25.60
2019-02-17T13:42:17.043Z,24.73
2019-02-17T13:44:44.096Z,24.47
2019-02-17T13:47:10.985Z,24.33
2019-02-17T13:49:37.946Z,24.00
2019-02-17T13:52:04.836Z,23.32
2019-02-17T13:54:31.866Z,24.27
2019-02-17T13:56:58.885Z,23.93
2019-02-17T13:59:25.923Z,24.13
2019-02-17T14:01:52.993Z,23.40
2019-02-17T14:04:20.417Z,25.40
2019-02-17T14:06:47.440Z,24.73
2019-02-17T14:09:14.917Z,25.37
2019-02-17T14:11:41.960Z,25.17
2019-02-17T14:14:09.304Z,23.55
2019-02-17T14:16:36.458Z,23.02
2019-02-17T14:19:04.686Z,22.23
2019-02-17T14:21:32.306Z,22.60
2019-02-17T14:23:59.262Z,24.67
2019-02-17T14:26:26.348Z,25.10
2019-02-17T14:28:53.292Z,24.43
2019-02-17T14:31:20.484Z,24.60
2019-02-17T14:33:47.626Z,23.30
2019-02-17T14:36:14.629Z,22.67
2019-02-17T14:38:41.717Z,24.00
2019-02-17T14:41:08.778Z,22.53
2019-02-17T14:43:35.834Z,32.87
2019-02-17T14:46:02.889Z,25.20
2019-02-17T14:48:29.908Z,22.37
2019-02-17T14:50:56.882Z,23.60
2019-02-17T14:53:23.952Z,21.17
2019-02-17T14:55:51.468Z,21.87
2019-02-17T14:58:18.630Z,20.60
2019-02-17T15:00:45.644Z,19.67
2019-02-17T15:03:12.718Z,20.90
2019-02-17T15:05:39.727Z,19.33
2019-02-17T15:08:06.740Z,21.93
2019-02-17T15:10:33.768Z,21.03
2019-02-17T15:13:00.705Z,20.77
2019-02-17T15:15:31.928Z,20.67
2019-02-17T15:17:58.988Z,21.73
2019-02-17T15:20:26.055Z,20.90
2019-02-17T15:22:53.106Z,20.53
2019-02-17T15:25:20.195Z,22.57
2019-02-17T15:27:47.081Z,21.00
2019-02-17T15:30:14.068Z,21.20
2019-02-17T15:32:41.021Z,23.57
2019-02-17T15:35:08.283Z,24.30
2019-02-17T15:37:35.276Z,23.03
2019-02-17T15:40:02.294Z,25.50
2019-02-17T15:42:29.345Z,24.37
2019-02-17T15:44:56.291Z,24.13
2019-02-17T15:47:23.280Z,24.30
2019-02-17T15:49:50.430Z,23.17
2019-02-17T15:52:17.450Z,22.50
2019-02-17T15:54:44.762Z,22.30
2019-02-17T15:57:11.844Z,22.50
2019-02-17T15:59:38.960Z,23.27
2019-02-17T16:02:05.954Z,22.17
2019-02-17T16:04:32.860Z,21.70
2019-02-17T16:07:00.058Z,24.93
2019-02-17T16:09:30.033Z,23.90
2019-02-17T16:11:57.014Z,24.10
2019-02-17T16:14:24.127Z,25.33
2019-02-17T16:16:51.107Z,25.33
2019-02-17T16:19:18.073Z,26.47
2019-02-17T16:21:45.013Z,24.53
2019-02-17T16:24:12.124Z,24.40
2019-02-17T16:26:39.145Z,23.37
2019-02-17T16:29:06.212Z,23.10
2019-02-17T16:31:33.200Z,24.60
2019-02-17T16:34:00.328Z,23.73
2019-02-17T16:36:27.301Z,24.57
2019-02-17T16:38:54.408Z,24.90
2019-02-17T16:41:21.677Z,28.63
2019-02-17T16:43:48.654Z,21.80
2019-02-17T16:46:15.742Z,23.22
2019-02-17T16:48:42.665Z,21.15
2019-02-17T16:51:09.776Z,23.80
2019-02-17T16:53:36.765Z,23.38
2019-02-17T16:56:03.738Z,21.87
2019-02-17T16:58:30.870Z,21.97
2019-02-17T17:00:57.936Z,22.02
2019-02-17T17:03:24.883Z,23.18
2019-02-17T17:05:51.915Z,23.07
2019-02-17T17:08:18.972Z,22.45
2019-02-17T17:10:46.049Z,23.73
2019-02-17T17:13:13.111Z,22.80
2019-02-17T17:15:40.021Z,20.08
2019-02-17T17:18:06.962Z,22.73
2019-02-17T17:20:33.945Z,23.32
2019-02-17T17:23:00.848Z,22.70
2019-02-17T17:25:27.809Z,23.35
2019-02-17T17:27:54.838Z,22.58
2019-02-17T17:30:21.803Z,22.10
2019-02-17T17:32:48.756Z,21.50
2019-02-17T17:35:15.897Z,22.22
2019-02-17T17:37:42.813Z,22.70
2019-02-17T17:40:10.414Z,22.25
2019-02-17T17:42:37.372Z,23.65
2019-02-17T17:45:05.259Z,23.30
2019-02-17T17:47:32.388Z,23.87
2019-02-17T17:49:59.313Z,20.15
2019-02-17T17:52:26.300Z,21.20
2019-02-17T17:54:53.309Z,21.90
2019-02-17T17:57:20.273Z,24.70
2019-02-17T17:59:47.494Z,20.95
2019-02-17T18:02:14.499Z,19.95
2019-02-17T18:04:41.510Z,20.37
2019-02-17T18:07:08.528Z,19.30
2019-02-17T18:09:35.814Z,19.20
2019-02-17T18:12:03.193Z,19.82
2019-02-17T18:14:30.431Z,18.98
2019-02-17T18:16:58.809Z,19.73
2019-02-17T18:19:25.835Z,17.45
2019-02-17T18:21:53.309Z,18.80
2019-02-17T18:24:20.964Z,19.37
2019-02-17T18:26:48.407Z,18.30
2019-02-17T18:29:16.295Z,16.70
2019-02-17T18:31:43.491Z,16.40
2019-02-17T18:34:10.717Z,16.67
2019-02-17T18:36:38.201Z,16.55
2019-02-17T18:39:05.608Z,16.57
2019-02-17T18:41:32.650Z,17.10
2019-02-17T18:44:00.814Z,16.20
2019-02-17T18:46:27.804Z,15.85
2019-02-17T18:48:55.072Z,14.68
2019-02-17T18:51:22.323Z,14.20
2019-02-17T18:53:49.578Z,15.43
2019-02-17T18:56:17.922Z,14.30
2019-02-17T18:58:45.311Z,15.45
2019-02-17T19:01:12.642Z,13.58
2019-02-17T19:03:40.070Z,16.10
2019-02-17T19:06:07.361Z,15.98
2019-02-17T19:08:34.680Z,16.32
2019-02-17T19:11:01.678Z,16.37
2019-02-17T19:13:29.201Z,15.18
2019-02-17T19:15:56.728Z,14.75
2019-02-17T19:18:23.749Z,15.18
2019-02-17T19:20:50.794Z,16.27
2019-02-17T19:23:17.834Z,16.05
2019-02-17T19:25:44.869Z,15.08
2019-02-17T19:28:12.226Z,14.60
2019-02-17T19:30:39.359Z,13.70
2019-02-17T19:33:06.462Z,22.25
2019-02-17T19:35:41.466Z,18.30
2019-02-17T19:38:02.666Z,15.18
2019-02-17T19:40:29.795Z,13.28
2019-02-17T19:42:56.974Z,14.00
2019-02-17T19:45:24.508Z,14.35
2019-02-17T19:47:52.134Z,14.40
2019-02-17T19:50:19.684Z,16.30
2019-02-17T19:52:47.666Z,13.88
2019-02-17T19:55:14.987Z,14.28
2019-02-17T19:57:42.148Z,14.60
2019-02-17T20:00:18.684Z,13.30
2019-02-17T20:03:04.788Z,13.62
2019-02-17T20:05:52.354Z,12.73
2019-02-17T20:08:20.333Z,13.60
2019-02-17T20:10:47.458Z,14.05
2019-02-17T20:13:14.748Z,14.60
2019-02-17T20:15:41.857Z,14.15
2019-02-17T20:18:09.006Z,13.53
2019-02-17T20:20:36.786Z,14.20
2019-02-17T20:23:04.409Z,12.65
2019-02-17T20:25:31.710Z,12.18
2019-02-17T20:27:59.238Z,14.05
2019-02-17T20:30:26.703Z,12.45
2019-02-17T20:33:02.775Z,12.10
2019-02-17T20:35:30.515Z,11.55
2019-02-17T20:37:58.664Z,11.80
2019-02-17T20:40:29.680Z,12.65
2019-02-17T20:42:58.253Z,12.15
2019-02-17T20:45:30.142Z,12.18
2019-02-17T20:47:57.095Z,11.80
2019-02-17T20:50:24.462Z,12.70
2019-02-17T20:52:51.681Z,13.55
2019-02-17T20:55:19.302Z,12.85
2019-02-17T20:57:46.413Z,12.20
2019-02-17T21:00:13.826Z,13.22
2019-02-17T21:02:40.972Z,13.25
2019-02-17T21:05:08.581Z,13.50
2019-02-17T21:07:35.613Z,12.23
2019-02-17T21:10:03.085Z,12.98
2019-02-17T21:12:34.712Z,13.40
2019-02-17T21:15:01.947Z,13.03
2019-02-17T21:17:29.109Z,13.03
2019-02-17T21:19:56.075Z,12.85
2019-02-17T21:22:23.237Z,12.20
2019-02-17T21:24:50.478Z,12.20
2019-02-17T21:27:21.135Z,14.05
2019-02-17T21:29:48.341Z,12.63
2019-02-17T21:32:15.740Z,12.60
2019-02-17T21:34:43.412Z,12.80
2019-02-17T21:37:10.604Z,13.90
2019-02-17T21:39:37.693Z,13.40
2019-02-17T21:42:05.333Z,12.00
2019-02-17T21:44:32.460Z,12.80
2019-02-17T21:46:59.509Z,12.18
2019-02-17T21:49:26.634Z,12.40
2019-02-17T21:51:53.694Z,12.15
2019-02-17T21:54:20.676Z,12.37
2019-02-17T21:56:47.763Z,12.25
2019-02-17T21:59:14.973Z,12.07
2019-02-17T22:01:42.022Z,13.15
2019-02-17T22:04:08.991Z,12.53
2019-02-17T22:06:36.444Z,12.53
2019-02-17T22:09:05.132Z,13.13
2019-02-17T22:11:32.213Z,12.53
2019-02-17T22:13:59.461Z,12.13
2019-02-17T22:16:26.870Z,12.10
2019-02-17T22:18:53.870Z,12.13
2019-02-17T22:21:20.961Z,13.43
2019-02-17T22:23:48.321Z,12.65
2019-02-17T22:26:15.600Z,11.88
2019-02-17T22:28:42.613Z,12.43
2019-02-17T22:31:09.666Z,11.90
2019-02-17T22:33:36.976Z,12.75
2019-02-17T22:36:04.271Z,13.25
2019-02-17T22:38:31.282Z,12.55
2019-02-17T22:40:58.361Z,12.80
2019-02-17T22:43:25.253Z,12.23
2019-02-17T22:45:52.239Z,11.48
2019-02-17T22:48:19.619Z,12.05
2019-02-17T22:50:46.690Z,12.63
2019-02-17T22:53:13.705Z,11.60
2019-02-17T22:55:40.731Z,11.95
2019-02-17T22:58:07.781Z,10.65
2019-02-17T23:00:46.993Z,11.35
2019-02-17T23:03:14.106Z,11.48
2019-02-17T23:05:42.313Z,11.22
2019-02-17T23:08:09.367Z,12.65
2019-02-17T23:10:36.514Z,11.83
2019-02-17T23:13:03.810Z,10.40
2019-02-17T23:15:30.757Z,12.43
2019-02-17T23:17:58.009Z,11.70
2019-02-17T23:20:25.059Z,12.80
2019-02-17T23:22:52.109Z,11.80
2019-02-17T23:25:19.640Z,11.45
2019-02-17T23:27:46.725Z,11.40
2019-02-17T23:30:13.796Z,11.73
2019-02-17T23:32:40.895Z,11.30
2019-02-17T23:35:07.981Z,11.90
2019-02-17T23:37:35.105Z,11.20
2019-02-17T23:40:03.978Z,11.35
2019-02-17T23:42:31.160Z,11.70
2019-02-17T23:44:58.305Z,11.18
2019-02-17T23:47:25.409Z,10.25
2019-02-17T23:49:53.476Z,11.68
2019-02-17T23:52:20.894Z,11.40
2019-02-17T23:54:47.907Z,10.15
2019-02-17T23:57:14.988Z,9.95
2019-02-17T23:59:42.001Z,11.68
